createdAt,value
2022-11-16T00:00:21.516Z,14.80
2022-11-16T00:02:52.142Z,14.70
2022-11-16T00:05:27.932Z,15.00
2022-11-16T00:08:01.600Z,14.50
2022-11-16T00:10:31.685Z,14.50
2022-11-16T00:13:03.287Z,14.50
2022-11-16T00:15:33.402Z,14.60
2022-11-16T00:18:03.491Z,14.60
2022-11-16T00:20:33.786Z,14.70
2022-11-16T00:23:06.733Z,14.40
2022-11-16T00:25:37.592Z,14.70
2022-11-16T00:28:07.650Z,14.70
2022-11-16T00:30:37.716Z,14.80
2022-11-16T00:33:09.604Z,14.80
2022-11-16T00:35:42.389Z,14.80
2022-11-16T00:38:15.056Z,14.90
2022-11-16T00:40:45.200Z,14.80
2022-11-16T00:43:15.237Z,14.90
2022-11-16T00:45:45.741Z,14.90
2022-11-16T00:48:16.049Z,14.90
2022-11-16T00:50:47.628Z,15.30
2022-11-16T00:53:22.334Z,14.90
2022-11-16T00:55:52.743Z,15.00
2022-11-16T00:58:22.761Z,15.00
2022-11-16T01:00:52.897Z,15.00
2022-11-16T01:03:23.215Z,15.00
2022-11-16T01:05:53.342Z,14.90
2022-11-16T01:08:26.081Z,15.00
2022-11-16T01:10:56.242Z,15.00
2022-11-16T01:13:23.716Z,15.00
2022-11-16T01:15:53.704Z,14.80
2022-11-16T01:18:23.741Z,14.40
2022-11-16T01:20:54.482Z,14.70
2022-11-16T01:23:27.263Z,14.70
2022-11-16T01:26:01.871Z,14.60
2022-11-16T01:28:32.785Z,14.10
2022-11-16T01:31:02.791Z,14.40
2022-11-16T01:33:33.429Z,14.40
2022-11-16T01:36:03.555Z,14.30
2022-11-16T01:38:36.759Z,14.30
2022-11-16T01:41:06.900Z,14.80
2022-11-16T01:43:53.594Z,14.60
2022-11-16T01:48:57.486Z,14.40
2022-11-16T01:51:27.976Z,14.40
2022-11-16T01:54:02.502Z,14.40
2022-11-16T01:56:34.605Z,13.80
2022-11-16T01:59:04.843Z,14.70
2022-11-16T02:01:40.919Z,14.40
2022-11-16T02:04:13.706Z,14.40
2022-11-16T02:07:02.065Z,14.40
2022-11-16T02:09:55.274Z,14.30
2022-11-16T02:12:54.895Z,14.20
2022-11-16T02:15:31.211Z,14.20
2022-11-16T02:18:14.101Z,14.20
2022-11-16T02:20:58.114Z,14.20
2022-11-16T02:24:04.289Z,14.10
2022-11-16T02:26:58.119Z,14.20
2022-11-16T02:29:35.269Z,14.20
2022-11-16T02:32:10.165Z,14.20
2022-11-16T02:34:44.501Z,13.70
2022-11-16T02:37:17.053Z,14.00
2022-11-16T02:39:49.214Z,14.00
2022-11-16T02:42:25.275Z,13.90
2022-11-16T02:45:00.616Z,13.90
2022-11-16T02:47:35.007Z,14.00
2022-11-16T02:50:09.652Z,13.80
2022-11-16T02:52:40.744Z,13.90
2022-11-16T02:55:11.425Z,13.80
2022-11-16T02:57:47.025Z,13.80
2022-11-16T03:00:24.979Z,13.70
2022-11-16T03:03:03.756Z,13.80
2022-11-16T03:05:38.001Z,13.80
2022-11-16T03:08:14.213Z,13.80
2022-11-16T03:10:59.295Z,13.80
2022-11-16T03:13:33.763Z,13.70
2022-11-16T03:16:14.360Z,13.50
2022-11-16T03:18:46.261Z,13.90
2022-11-16T03:21:21.667Z,14.00
2022-11-16T03:23:52.097Z,13.90
2022-11-16T03:26:26.647Z,13.10
2022-11-16T03:29:03.522Z,13.70
2022-11-16T03:31:40.624Z,15.10
2022-11-16T03:34:16.446Z,13.60
2022-11-16T03:36:52.712Z,13.50
2022-11-16T03:39:32.108Z,12.90
2022-11-16T03:42:04.893Z,13.50
2022-11-16T03:44:36.313Z,13.60
2022-11-16T03:47:09.042Z,13.60
2022-11-16T03:49:40.672Z,13.70
2022-11-16T03:52:10.778Z,13.70
2022-11-16T03:54:40.900Z,13.70
2022-11-16T03:57:15.693Z,13.50
2022-11-16T03:59:46.085Z,13.40
2022-11-16T04:02:18.734Z,13.40
2022-11-16T04:05:01.165Z,13.50
2022-11-16T04:07:43.670Z,13.60
2022-11-16T04:10:26.544Z,13.60
2022-11-16T04:13:09.185Z,14.50
2022-11-16T04:15:51.544Z,13.50
2022-11-16T04:18:36.782Z,13.40
2022-11-16T04:21:19.861Z,13.40
2022-11-16T04:24:03.405Z,13.80
2022-11-16T04:26:45.960Z,13.60
2022-11-16T04:29:17.121Z,13.30
2022-11-16T04:31:59.587Z,12.10
2022-11-16T04:34:44.649Z,13.30
2022-11-16T04:37:30.520Z,13.30
2022-11-16T04:40:00.536Z,13.30
2022-11-16T04:42:27.989Z,13.20
2022-11-16T04:45:10.473Z,13.10
2022-11-16T04:47:40.534Z,12.50
2022-11-16T04:50:13.612Z,13.30
2022-11-16T04:52:43.603Z,13.00
2022-11-16T04:55:14.444Z,12.90
2022-11-16T04:57:44.715Z,12.90
2022-11-16T05:00:16.467Z,12.90
2022-11-16T05:02:46.533Z,12.50
2022-11-16T05:05:19.343Z,12.80
2022-11-16T05:07:49.700Z,12.80
2022-11-16T05:10:19.958Z,12.80
2022-11-16T05:12:50.159Z,12.80
2022-11-16T05:15:20.926Z,12.80
2022-11-16T05:17:51.301Z,12.40
2022-11-16T05:20:36.434Z,12.70
2022-11-16T05:23:26.524Z,12.70
2022-11-16T05:25:56.627Z,12.80
2022-11-16T05:28:26.652Z,12.70
2022-11-16T05:30:56.838Z,12.70
2022-11-16T05:35:59.942Z,11.90
2022-11-16T05:38:30.137Z,12.30
2022-11-16T05:41:00.361Z,12.30
2022-11-16T05:43:31.934Z,12.40
2022-11-16T05:46:02.114Z,11.90
2022-11-16T05:48:32.522Z,12.50
2022-11-16T05:51:08.403Z,12.60
2022-11-16T05:53:38.527Z,12.50
2022-11-16T05:56:09.537Z,11.30
2022-11-16T05:58:39.813Z,13.20
2022-11-16T06:03:40.494Z,12.20
2022-11-16T06:06:13.320Z,12.10
2022-11-16T06:08:43.530Z,12.00
2022-11-16T06:11:14.833Z,13.20
2022-11-16T06:13:44.779Z,12.60
2022-11-16T06:16:15.481Z,12.10
2022-11-16T06:21:21.349Z,12.00
2022-11-16T06:23:51.475Z,12.90
2022-11-16T06:26:21.580Z,12.10
2022-11-16T06:28:52.203Z,12.20
2022-11-16T06:31:22.333Z,12.10
2022-11-16T06:33:52.632Z,12.90
2022-11-16T06:36:25.636Z,12.20
2022-11-16T06:39:02.283Z,12.20
2022-11-16T06:41:34.936Z,12.20
2022-11-16T06:44:07.835Z,12.20
2022-11-16T06:46:38.097Z,12.60
2022-11-16T06:49:08.174Z,12.10
2022-11-16T06:51:40.977Z,11.70
2022-11-16T06:54:11.281Z,12.20
2022-11-16T06:56:41.449Z,12.00
2022-11-16T06:59:20.440Z,12.00
2022-11-16T07:01:51.424Z,11.50
2022-11-16T07:04:21.900Z,12.00
2022-11-16T07:06:54.711Z,12.50
2022-11-16T07:09:24.775Z,11.80
2022-11-16T07:11:54.953Z,11.60
2022-11-16T07:14:25.001Z,11.80
2022-11-16T07:16:59.756Z,12.20
2022-11-16T07:22:04.432Z,11.70
2022-11-16T07:24:34.834Z,12.20
2022-11-16T07:27:05.142Z,11.50
2022-11-16T07:29:35.163Z,11.50
2022-11-16T07:32:05.233Z,11.80
2022-11-16T07:34:35.332Z,12.20
2022-11-16T07:37:07.985Z,11.90
2022-11-16T07:39:38.249Z,11.40
2022-11-16T07:42:11.959Z,11.80
2022-11-16T07:44:42.426Z,11.90
2022-11-16T07:47:12.728Z,12.50
2022-11-16T07:49:42.951Z,12.60
2022-11-16T07:52:15.736Z,13.60
2022-11-16T07:54:45.800Z,13.60
2022-11-16T07:57:15.908Z,14.00
2022-11-16T07:59:45.968Z,14.40
2022-11-16T08:02:16.024Z,14.90
2022-11-16T08:04:46.002Z,15.30
2022-11-16T08:07:19.194Z,15.80
2022-11-16T08:09:50.126Z,16.30
2022-11-16T08:12:20.480Z,16.80
2022-11-16T08:14:50.685Z,17.10
2022-11-16T08:17:20.693Z,17.30
2022-11-16T08:19:50.639Z,17.60
2022-11-16T08:22:23.214Z,18.00
2022-11-16T08:24:53.148Z,18.10
2022-11-16T08:27:24.055Z,18.50
2022-11-16T08:29:53.963Z,18.70
2022-11-16T08:32:23.883Z,19.00
2022-11-16T08:34:53.949Z,20.00
2022-11-16T08:37:28.005Z,19.90
2022-11-16T08:39:58.113Z,20.30
2022-11-16T08:42:28.157Z,20.30
2022-11-16T08:44:58.072Z,20.30
2022-11-16T08:47:28.017Z,20.90
2022-11-16T08:49:58.229Z,21.20
2022-11-16T08:52:30.822Z,21.20
2022-11-16T08:55:00.785Z,21.50
2022-11-16T08:57:30.767Z,21.60
2022-11-16T09:00:00.881Z,22.00
2022-11-16T09:02:30.886Z,22.40
2022-11-16T09:05:00.969Z,22.60
2022-11-16T09:07:33.628Z,22.50
2022-11-16T09:10:03.747Z,22.90
2022-11-16T09:12:33.675Z,23.10
2022-11-16T09:15:03.766Z,23.00
2022-11-16T09:17:33.685Z,22.60
2022-11-16T09:20:03.849Z,22.90
2022-11-16T09:22:36.408Z,23.10
2022-11-16T09:25:06.630Z,22.80
2022-11-16T09:27:36.535Z,22.20
2022-11-16T09:30:07.407Z,22.00
2022-11-16T09:32:37.335Z,22.00
2022-11-16T09:35:07.805Z,22.50
2022-11-16T09:37:40.493Z,23.50
2022-11-16T09:40:12.739Z,23.90
2022-11-16T09:42:56.277Z,23.80
2022-11-16T09:45:33.503Z,23.60
2022-11-16T09:48:07.502Z,23.70
2022-11-16T09:50:47.233Z,24.40
2022-11-16T09:53:41.112Z,24.90
2022-11-16T09:56:21.894Z,24.90
2022-11-16T09:58:58.711Z,25.00
2022-11-16T10:01:32.414Z,25.10
2022-11-16T10:04:07.286Z,24.50
2022-11-16T10:06:50.023Z,24.30
2022-11-16T10:09:23.477Z,23.00
2022-11-16T10:12:13.673Z,22.00
2022-11-16T10:15:01.692Z,20.40
2022-11-16T10:17:45.897Z,19.30
2022-11-16T10:20:32.795Z,18.00
2022-11-16T10:23:10.247Z,17.20
2022-11-16T10:25:46.435Z,16.60
2022-11-16T10:28:32.249Z,16.50
2022-11-16T10:31:08.123Z,16.50
2022-11-16T10:33:41.026Z,17.30
2022-11-16T10:36:16.368Z,16.70
2022-11-16T10:38:47.259Z,17.00
2022-11-16T10:41:24.449Z,17.30
2022-11-16T10:43:54.577Z,17.30
2022-11-16T10:46:29.222Z,16.80
2022-11-16T10:49:07.851Z,16.40
2022-11-16T10:51:37.982Z,16.00
2022-11-16T10:54:16.152Z,16.00
2022-11-16T10:56:51.977Z,16.00
2022-11-16T10:59:23.185Z,16.00
2022-11-16T11:01:54.568Z,16.20
2022-11-16T11:04:27.183Z,16.20
2022-11-16T11:06:59.341Z,16.30
2022-11-16T11:09:32.488Z,15.90
2022-11-16T11:12:41.860Z,16.00
2022-11-16T11:15:27.118Z,16.10
2022-11-16T11:18:19.255Z,16.10
2022-11-16T11:20:51.511Z,16.30
2022-11-16T11:23:23.442Z,16.20
2022-11-16T11:25:56.095Z,16.30
2022-11-16T11:28:32.063Z,16.30
2022-11-16T11:31:04.616Z,16.50
2022-11-16T11:33:38.402Z,17.40
2022-11-16T11:36:13.270Z,17.10
2022-11-16T11:39:00.287Z,16.90
2022-11-16T11:41:36.194Z,16.90
2022-11-16T11:44:17.630Z,16.70
2022-11-16T11:49:50.190Z,16.50
2022-11-16T11:52:24.025Z,16.80
2022-11-16T11:54:57.367Z,16.80
2022-11-16T11:57:27.436Z,17.00
2022-11-16T12:00:00.088Z,17.00
2022-11-16T12:02:47.565Z,16.90
2022-11-16T12:05:35.131Z,16.70
2022-11-16T12:08:31.156Z,16.60
2022-11-16T12:11:10.987Z,16.60
2022-11-16T12:14:06.547Z,16.50
2022-11-16T12:16:46.904Z,16.30
2022-11-16T12:19:35.878Z,16.20
2022-11-16T12:22:21.119Z,16.20
2022-11-16T12:25:10.470Z,16.00
2022-11-16T12:27:48.417Z,15.90
2022-11-16T12:30:21.211Z,15.60
2022-11-16T12:33:14.010Z,15.50
2022-11-16T12:35:51.699Z,15.30
2022-11-16T12:38:48.104Z,15.40
2022-11-16T12:41:48.777Z,15.30
2022-11-16T12:44:24.925Z,15.20
2022-11-16T12:47:02.630Z,15.90
2022-11-16T12:49:57.515Z,15.40
2022-11-16T12:52:46.795Z,15.70
2022-11-16T12:55:27.599Z,15.50
2022-11-16T12:58:10.502Z,15.40
2022-11-16T13:00:52.825Z,15.30
2022-11-16T13:03:28.712Z,16.20
2022-11-16T13:06:06.424Z,15.20
2022-11-16T13:08:54.923Z,15.40
2022-11-16T13:11:30.230Z,15.40
2022-11-16T13:14:03.664Z,15.20
2022-11-16T13:16:34.044Z,14.70
2022-11-16T13:19:06.919Z,15.10
2022-11-16T13:21:50.492Z,15.00
2022-11-16T13:24:44.266Z,14.70
2022-11-16T13:27:25.555Z,14.90
2022-11-16T13:30:01.969Z,15.00
2022-11-16T13:32:46.258Z,15.00
2022-11-16T13:35:18.659Z,15.10
2022-11-16T13:37:52.275Z,15.10
2022-11-16T13:40:30.418Z,15.10
2022-11-16T13:43:19.718Z,14.80
2022-11-16T13:46:03.715Z,15.60
2022-11-16T13:48:38.517Z,14.20
2022-11-16T13:51:11.663Z,15.30
2022-11-16T13:56:51.916Z,14.90
2022-11-16T13:59:28.621Z,14.90
2022-11-16T14:02:00.882Z,14.80
2022-11-16T14:04:45.672Z,14.80
2022-11-16T14:07:43.280Z,14.80
2022-11-16T14:10:50.912Z,14.80
2022-11-16T14:13:44.291Z,14.60
2022-11-16T14:16:47.323Z,15.10
2022-11-16T14:19:55.132Z,15.70
2022-11-16T14:22:53.462Z,14.80
2022-11-16T14:25:35.346Z,14.80
2022-11-16T14:28:25.614Z,15.10
2022-11-16T14:31:06.775Z,14.70
2022-11-16T14:33:39.507Z,14.70
2022-11-16T14:36:12.862Z,14.60
2022-11-16T14:38:45.089Z,14.70
2022-11-16T14:41:28.393Z,14.80
2022-11-16T14:44:01.040Z,14.80
2022-11-16T14:46:35.910Z,14.80
2022-11-16T14:49:07.507Z,14.30
2022-11-16T14:51:40.840Z,14.90
2022-11-16T14:54:18.682Z,14.40
2022-11-16T14:57:06.255Z,14.40
2022-11-16T14:59:36.655Z,14.50
2022-11-16T15:02:19.676Z,14.50
2022-11-16T15:04:50.324Z,14.50
2022-11-16T15:07:21.962Z,14.40
2022-11-16T15:09:54.181Z,14.40
2022-11-16T15:12:46.038Z,14.30
2022-11-16T15:15:18.803Z,14.40
2022-11-16T15:17:54.917Z,14.10
2022-11-16T15:20:27.095Z,14.40
2022-11-16T15:22:59.844Z,14.10
2022-11-16T15:25:32.460Z,15.30
2022-11-16T15:28:07.637Z,14.10
2022-11-16T15:30:40.415Z,13.80
2022-11-16T15:33:14.141Z,14.10
2022-11-16T15:35:44.796Z,14.10
2022-11-16T15:38:19.658Z,14.10
2022-11-16T15:40:52.623Z,13.90
2022-11-16T15:43:28.316Z,14.00
2022-11-16T15:48:29.996Z,13.30
2022-11-16T15:51:04.724Z,13.90
2022-11-16T15:53:40.685Z,13.90
2022-11-16T15:56:15.439Z,13.20
2022-11-16T15:58:49.298Z,13.60
2022-11-16T16:01:20.596Z,13.10
2022-11-16T16:03:58.748Z,14.20
2022-11-16T16:06:48.633Z,13.70
2022-11-16T16:09:28.093Z,13.50
2022-11-16T16:12:00.368Z,13.70
2022-11-16T16:14:33.824Z,13.30
2022-11-16T16:17:04.191Z,13.40
2022-11-16T16:19:40.246Z,13.20
2022-11-16T16:22:17.324Z,13.50
2022-11-16T16:24:49.008Z,13.20
2022-11-16T16:27:20.534Z,13.50
2022-11-16T16:29:54.344Z,13.30
2022-11-16T16:32:28.888Z,13.50
2022-11-16T16:35:00.668Z,13.00
2022-11-16T16:37:32.784Z,13.40
2022-11-16T16:40:03.377Z,13.00
2022-11-16T16:42:33.520Z,13.70
2022-11-16T16:45:06.326Z,13.20
2022-11-16T16:47:36.530Z,13.70
2022-11-16T16:50:06.886Z,13.50
2022-11-16T16:52:37.590Z,13.30
2022-11-16T16:55:08.354Z,13.30
2022-11-16T16:57:38.489Z,13.50
2022-11-16T17:00:14.307Z,13.40
2022-11-16T17:02:44.652Z,13.40
2022-11-16T17:07:45.233Z,13.30
2022-11-16T17:10:15.295Z,13.40
2022-11-16T17:12:45.395Z,13.40
2022-11-16T17:15:19.591Z,13.50
2022-11-16T17:17:50.641Z,13.40
2022-11-16T17:20:21.002Z,13.30
2022-11-16T17:22:51.210Z,13.20
2022-11-16T17:25:21.525Z,13.30
2022-11-16T17:27:51.924Z,13.30
2022-11-16T17:30:24.832Z,13.30
2022-11-16T17:32:55.526Z,13.10
2022-11-16T17:35:25.758Z,13.00
2022-11-16T17:37:56.323Z,13.20
2022-11-16T17:40:26.258Z,13.10
2022-11-16T17:42:56.652Z,13.20
2022-11-16T17:45:29.389Z,13.30
2022-11-16T17:47:59.489Z,13.30
2022-11-16T17:50:29.575Z,13.20
2022-11-16T17:52:59.894Z,13.10
2022-11-16T17:55:30.003Z,13.60
2022-11-16T17:58:00.287Z,13.10
2022-11-16T18:00:33.084Z,13.10
2022-11-16T18:03:03.298Z,13.10
2022-11-16T18:05:33.354Z,13.10
2022-11-16T18:08:05.259Z,13.10
2022-11-16T18:10:41.239Z,13.50
2022-11-16T18:13:11.390Z,13.00
2022-11-16T18:15:44.047Z,12.90
2022-11-16T18:18:14.201Z,13.00
2022-11-16T18:20:44.628Z,13.00
2022-11-16T18:23:14.715Z,13.00
2022-11-16T18:25:45.123Z,13.00
2022-11-16T18:28:15.280Z,13.00
2022-11-16T18:30:47.946Z,13.10
2022-11-16T18:33:18.813Z,13.00
2022-11-16T18:35:48.891Z,13.00
2022-11-16T18:38:19.065Z,12.70
2022-11-16T18:40:49.357Z,13.10
2022-11-16T18:43:19.906Z,13.20
2022-11-16T18:45:52.639Z,13.20
2022-11-16T18:48:22.873Z,13.70
2022-11-16T18:50:52.865Z,13.10
2022-11-16T18:53:23.183Z,13.50
2022-11-16T18:55:57.866Z,13.00
2022-11-16T18:58:49.721Z,13.00
2022-11-16T19:01:23.623Z,13.10
2022-11-16T19:03:54.669Z,13.10
2022-11-16T19:06:25.573Z,13.00
2022-11-16T19:09:00.138Z,12.90
2022-11-16T19:11:31.310Z,12.90
2022-11-16T19:14:04.468Z,12.90
2022-11-16T19:16:40.540Z,13.00
2022-11-16T19:19:13.756Z,13.00
2022-11-16T19:21:43.983Z,13.00
2022-11-16T19:24:14.204Z,13.00
2022-11-16T19:26:59.714Z,12.90
2022-11-16T19:29:30.013Z,12.80
2022-11-16T19:32:02.668Z,12.80
2022-11-16T19:34:33.541Z,12.80
2022-11-16T19:37:03.789Z,12.90
2022-11-16T19:39:33.940Z,12.80
2022-11-16T19:44:34.616Z,12.80
2022-11-16T19:47:07.753Z,12.90
2022-11-16T19:49:37.875Z,12.20
2022-11-16T19:52:08.273Z,12.80
2022-11-16T19:54:38.465Z,13.30
2022-11-16T19:57:08.532Z,12.60
2022-11-16T19:59:40.974Z,13.00
2022-11-16T20:02:14.705Z,12.80
2022-11-16T20:04:44.860Z,12.90
2022-11-16T20:07:18.209Z,12.80
2022-11-16T20:09:53.611Z,13.30
2022-11-16T20:12:23.934Z,12.60
2022-11-16T20:14:54.095Z,12.70
2022-11-16T20:17:26.707Z,13.30
2022-11-16T20:19:57.133Z,12.90
2022-11-16T20:22:27.159Z,12.30
2022-11-16T20:27:29.505Z,12.00
2022-11-16T20:30:01.000Z,11.60
2022-11-16T20:32:36.432Z,12.00
2022-11-16T20:35:06.707Z,12.10
2022-11-16T20:37:36.846Z,11.60
2022-11-16T20:40:07.934Z,11.90
2022-11-16T20:42:37.799Z,11.70
2022-11-16T20:45:09.217Z,12.10
2022-11-16T20:47:41.887Z,11.70
2022-11-16T20:50:12.790Z,11.70
2022-11-16T20:55:18.738Z,11.70
2022-11-16T20:57:48.819Z,12.20
2022-11-16T21:00:20.666Z,12.00
2022-11-16T21:02:53.342Z,11.60
2022-11-16T21:05:23.453Z,11.50
2022-11-16T21:07:53.510Z,11.60
2022-11-16T21:10:23.614Z,11.70
2022-11-16T21:13:06.253Z,12.10
2022-11-16T21:15:37.487Z,11.10
2022-11-16T21:18:10.246Z,11.50
2022-11-16T21:20:40.839Z,10.70
2022-11-16T21:23:10.928Z,11.40
2022-11-16T21:25:41.163Z,11.50
2022-11-16T21:30:41.705Z,11.10
2022-11-16T21:33:14.304Z,11.10
2022-11-16T21:35:44.427Z,11.70
2022-11-16T21:38:14.429Z,11.20
2022-11-16T21:40:44.528Z,11.20
2022-11-16T21:43:15.114Z,10.70
2022-11-16T21:45:45.316Z,10.70
2022-11-16T21:48:18.291Z,11.20
2022-11-16T21:50:48.463Z,11.20
2022-11-16T21:53:18.452Z,11.70
2022-11-16T21:55:52.700Z,11.40
2022-11-16T21:58:22.680Z,11.50
2022-11-16T22:00:53.211Z,10.90
2022-11-16T22:03:26.444Z,11.30
2022-11-16T22:06:11.721Z,10.50
2022-11-16T22:08:42.109Z,10.80
2022-11-16T22:11:13.251Z,11.30
2022-11-16T22:13:43.380Z,11.30
2022-11-16T22:16:15.416Z,11.30
2022-11-16T22:18:48.130Z,11.50
2022-11-16T22:21:18.187Z,10.80
2022-11-16T22:23:48.232Z,11.20
2022-11-16T22:26:18.349Z,11.70
2022-11-16T22:28:48.331Z,11.80
2022-11-16T22:31:18.597Z,12.30
2022-11-16T22:33:54.871Z,10.80
2022-11-16T22:38:57.168Z,11.20
2022-11-16T22:41:27.214Z,11.10
2022-11-16T22:43:57.390Z,11.70
2022-11-16T22:46:27.453Z,11.10
2022-11-16T22:49:00.063Z,10.80
2022-11-16T22:51:31.529Z,10.80
2022-11-16T22:54:03.163Z,11.20
2022-11-16T22:56:34.859Z,11.20
2022-11-16T22:59:05.804Z,11.30
2022-11-16T23:04:09.627Z,10.40
2022-11-16T23:06:39.762Z,11.20
2022-11-16T23:09:09.743Z,11.00
2022-11-16T23:14:35.197Z,11.00
2022-11-16T23:17:06.513Z,11.40
2022-11-16T23:19:51.612Z,11.30
2022-11-16T23:22:35.885Z,10.90
2022-11-16T23:25:18.731Z,11.30
2022-11-16T23:27:55.913Z,11.30
2022-11-16T23:30:26.817Z,11.30
2022-11-16T23:32:56.927Z,11.70
2022-11-16T23:35:29.581Z,11.40
2022-11-16T23:38:01.100Z,10.50
2022-11-16T23:40:32.767Z,11.50
2022-11-16T23:43:15.804Z,11.80
2022-11-16T23:45:46.780Z,11.50
2022-11-16T23:48:18.924Z,11.70
2022-11-16T23:50:51.652Z,11.40
2022-11-16T23:53:23.438Z,10.60
2022-11-16T23:55:53.565Z,11.50
